SWA1882 KBNA-KMYR
Flight info
| Callsign | SWA1882 |
|---|---|
| Flight time | 1h 5m |
| Altitude | 37000 |
| Route | TAZMO4 BURME SPA FLO |
| Aircraft | B738/M-SDE2E3FGHIRWXY/LB1 |
Departure
| Time | 2026-04-25 22:48 |
|---|---|
| Airport | Nashville International Airport (KBNA) |
Arrival
| Time | 2026-04-25 23:53 |
|---|---|
| Airport | Myrtle Beach International Airport (KMYR) |
| Time | Latitude | Longitude | Altitude | Speed | Heading |
|---|---|---|---|---|---|
| 2026-04-25 22:22 | 36.12962 | -86.66801 | 608 ft | 0 kts | 41° |
| 2026-04-25 22:32 | 36.12961 | -86.66802 | 608 ft | 1 kts | 42° |
| 2026-04-25 22:32 | 36.12950 | -86.66814 | 608 ft | 2 kts | 41° |
| 2026-04-25 22:32 | 36.12939 | -86.66827 | 608 ft | 2 kts | 41° |
| 2026-04-25 22:33 | 36.12928 | -86.66838 | 608 ft | 0 kts | 42° |
| 2026-04-25 22:33 | 36.12924 | -86.66844 | 608 ft | 0 kts | 90° |
| 2026-04-25 22:33 | 36.12925 | -86.66851 | 608 ft | 0 kts | 133° |
| 2026-04-25 22:33 | 36.12929 | -86.66856 | 608 ft | 0 kts | 131° |
| 2026-04-25 22:36 | 36.12917 | -86.66840 | 608 ft | 3 kts | 130° |
| 2026-04-25 22:36 | 36.12897 | -86.66811 | 608 ft | 5 kts | 130° |
| 2026-04-25 22:37 | 36.12871 | -86.66773 | 608 ft | 6 kts | 130° |
| 2026-04-25 22:37 | 36.12838 | -86.66728 | 608 ft | 7 kts | 139° |
| 2026-04-25 22:37 | 36.12815 | -86.66713 | 608 ft | 0 kts | 165° |
| 2026-04-25 22:39 | 36.12814 | -86.66713 | 608 ft | 0 kts | 165° |
| 2026-04-25 22:40 | 36.12795 | -86.66710 | 608 ft | 6 kts | 176° |
| 2026-04-25 22:40 | 36.12723 | -86.66739 | 608 ft | 13 kts | 221° |
| 2026-04-25 22:40 | 36.12641 | -86.66827 | 608 ft | 17 kts | 221° |
| 2026-04-25 22:40 | 36.12537 | -86.66914 | 608 ft | 18 kts | 209° |
| 2026-04-25 22:41 | 36.12424 | -86.66992 | 608 ft | 14 kts | 202° |
| 2026-04-25 22:41 | 36.12339 | -86.66937 | 608 ft | 17 kts | 133° |
| 2026-04-25 22:41 | 36.12271 | -86.66782 | 608 ft | 23 kts | 108° |
| 2026-04-25 22:41 | 36.12222 | -86.66595 | 608 ft | 12 kts | 108° |
| 2026-04-25 22:42 | 36.12185 | -86.66541 | 608 ft | 10 kts | 190° |
| 2026-04-25 22:42 | 36.12096 | -86.66577 | 608 ft | 18 kts | 198° |
| 2026-04-25 22:42 | 36.11947 | -86.66637 | 608 ft | 24 kts | 198° |
| 2026-04-25 22:42 | 36.11784 | -86.66702 | 608 ft | 24 kts | 198° |
| 2026-04-25 22:43 | 36.11660 | -86.66752 | 608 ft | 15 kts | 198° |
| 2026-04-25 22:43 | 36.11553 | -86.66795 | 608 ft | 18 kts | 198° |
| 2026-04-25 22:43 | 36.11417 | -86.66849 | 608 ft | 16 kts | 198° |
| 2026-04-25 22:43 | 36.11379 | -86.66865 | 608 ft | 0 kts | 198° |
| 2026-04-25 22:44 | 36.11378 | -86.66865 | 608 ft | 0 kts | 198° |
| 2026-04-25 22:44 | 36.11374 | -86.66866 | 608 ft | 1 kts | 198° |
| 2026-04-25 22:45 | 36.11348 | -86.66877 | 608 ft | 6 kts | 198° |
| 2026-04-25 22:45 | 36.11323 | -86.66876 | 608 ft | 0 kts | 150° |
| 2026-04-25 22:46 | 36.11307 | -86.66852 | 608 ft | 7 kts | 110° |
| 2026-04-25 22:46 | 36.11287 | -86.66784 | 608 ft | 9 kts | 107° |
| 2026-04-25 22:47 | 36.11333 | -86.66740 | 608 ft | 10 kts | 19° |
| 2026-04-25 22:47 | 36.11445 | -86.66693 | 608 ft | 36 kts | 18° |
| 2026-04-25 22:47 | 36.11930 | -86.66502 | 608 ft | 105 kts | 17° |
| 2026-04-25 22:47 | 36.12809 | -86.66148 | 635 ft | 155 kts | 18° |
| 2026-04-25 22:48 | 36.13818 | -86.65717 | 1301 ft | 154 kts | 18° |
| 2026-04-25 22:48 | 36.14796 | -86.65263 | 1996 ft | 153 kts | 30° |
| 2026-04-25 22:48 | 36.15562 | -86.64354 | 2599 ft | 157 kts | 48° |
| 2026-04-25 22:48 | 36.16270 | -86.63333 | 3172 ft | 160 kts | 45° |
| 2026-04-25 22:49 | 36.17061 | -86.62329 | 3657 ft | 169 kts | 43° |
| 2026-04-25 22:49 | 36.17952 | -86.61237 | 4009 ft | 190 kts | 43° |
| 2026-04-25 22:49 | 36.18928 | -86.60017 | 4267 ft | 213 kts | 44° |
| 2026-04-25 22:49 | 36.20054 | -86.58590 | 4300 ft | 245 kts | 44° |
| 2026-04-25 22:50 | 36.21218 | -86.57021 | 4833 ft | 259 kts | 51° |
| 2026-04-25 22:50 | 36.22044 | -86.55000 | 5522 ft | 269 kts | 75° |
| 2026-04-25 22:50 | 36.22086 | -86.52687 | 6295 ft | 277 kts | 98° |
| 2026-04-25 22:50 | 36.21574 | -86.50408 | 7008 ft | 284 kts | 105° |
| 2026-04-25 22:51 | 36.20968 | -86.48064 | 7776 ft | 289 kts | 105° |
| 2026-04-25 22:51 | 36.20363 | -86.45675 | 8570 ft | 294 kts | 105° |
| 2026-04-25 22:51 | 36.19743 | -86.43259 | 9360 ft | 299 kts | 108° |
| 2026-04-25 22:51 | 36.19009 | -86.40876 | 10168 ft | 304 kts | 111° |
| 2026-04-25 22:52 | 36.18161 | -86.38436 | 10747 ft | 318 kts | 112° |
| 2026-04-25 22:52 | 36.17223 | -86.35847 | 11272 ft | 334 kts | 113° |
| 2026-04-25 22:52 | 36.16246 | -86.33161 | 11780 ft | 350 kts | 114° |
| 2026-04-25 22:52 | 36.15580 | -86.31316 | 12155 ft | 360 kts | 114° |
| 2026-04-25 22:53 | 36.14208 | -86.27483 | 13105 ft | 372 kts | 114° |
| 2026-04-25 22:53 | 36.13167 | -86.24556 | 13933 ft | 378 kts | 114° |
| 2026-04-25 22:53 | 36.12108 | -86.21572 | 14705 ft | 384 kts | 114° |
| 2026-04-25 22:53 | 36.11028 | -86.18530 | 15558 ft | 389 kts | 115° |
| 2026-04-25 22:54 | 36.09942 | -86.15474 | 16335 ft | 394 kts | 115° |
| 2026-04-25 22:54 | 36.08842 | -86.12375 | 17073 ft | 399 kts | 115° |
| 2026-04-25 22:54 | 36.07826 | -86.09139 | 17785 ft | 405 kts | 110° |
| 2026-04-25 22:54 | 36.07091 | -86.05779 | 18467 ft | 413 kts | 103° |
| 2026-04-25 22:55 | 36.06622 | -86.02238 | 19148 ft | 419 kts | 98° |
| 2026-04-25 22:55 | 36.06309 | -85.98644 | 19773 ft | 426 kts | 96° |
| 2026-04-25 22:55 | 36.06065 | -85.94986 | 20459 ft | 430 kts | 95° |
| 2026-04-25 22:55 | 36.05847 | -85.91318 | 21105 ft | 434 kts | 94° |
| 2026-04-25 22:56 | 36.05627 | -85.87595 | 21766 ft | 438 kts | 94° |
| 2026-04-25 22:56 | 36.05396 | -85.83805 | 22337 ft | 444 kts | 94° |
| 2026-04-25 22:56 | 36.05152 | -85.79991 | 22992 ft | 447 kts | 94° |
| 2026-04-25 22:56 | 36.04900 | -85.76186 | 23556 ft | 452 kts | 94° |
| 2026-04-25 22:57 | 36.04639 | -85.72312 | 24133 ft | 457 kts | 94° |
| 2026-04-25 22:57 | 36.04371 | -85.68379 | 24687 ft | 461 kts | 94° |
| 2026-04-25 22:57 | 36.04099 | -85.64449 | 25241 ft | 466 kts | 95° |
| 2026-04-25 22:57 | 36.03819 | -85.60439 | 25805 ft | 469 kts | 94° |
| 2026-04-25 22:58 | 36.03536 | -85.56412 | 26355 ft | 473 kts | 95° |
| 2026-04-25 22:58 | 36.03250 | -85.52383 | 26836 ft | 478 kts | 95° |
| 2026-04-25 22:58 | 36.02955 | -85.48266 | 27385 ft | 481 kts | 95° |
| 2026-04-25 22:58 | 36.02661 | -85.44181 | 27881 ft | 484 kts | 95° |
| 2026-04-25 22:59 | 36.02359 | -85.40002 | 28339 ft | 489 kts | 95° |
| 2026-04-25 22:59 | 36.02056 | -85.35832 | 29018 ft | 488 kts | 95° |
| 2026-04-25 22:59 | 36.01751 | -85.31644 | 29641 ft | 487 kts | 95° |
| 2026-04-25 22:59 | 36.01445 | -85.27477 | 30267 ft | 486 kts | 95° |
| 2026-04-25 23:00 | 36.01140 | -85.23348 | 30874 ft | 485 kts | 96° |
| 2026-04-25 23:00 | 36.00831 | -85.19185 | 31536 ft | 481 kts | 96° |
| 2026-04-25 23:00 | 36.00528 | -85.15112 | 32155 ft | 479 kts | 96° |
| 2026-04-25 23:00 | 36.00190 | -85.11056 | 32761 ft | 475 kts | 98° |
| 2026-04-25 23:01 | 35.99722 | -85.06999 | 33315 ft | 473 kts | 102° |
| 2026-04-25 23:01 | 35.99017 | -85.03027 | 33819 ft | 470 kts | 107° |
| 2026-04-25 23:01 | 35.98117 | -84.99197 | 34293 ft | 467 kts | 110° |
| 2026-04-25 23:01 | 35.97066 | -84.95374 | 34701 ft | 465 kts | 112° |
| 2026-04-25 23:02 | 35.95963 | -84.91621 | 35011 ft | 466 kts | 113° |
| 2026-04-25 23:02 | 35.94844 | -84.87878 | 35364 ft | 466 kts | 113° |
| 2026-04-25 23:02 | 35.93719 | -84.84132 | 35734 ft | 465 kts | 113° |
| 2026-04-25 23:02 | 35.92586 | -84.80353 | 36109 ft | 465 kts | 113° |
| 2026-04-25 23:03 | 35.91462 | -84.76600 | 36499 ft | 465 kts | 113° |
| 2026-04-25 23:03 | 35.90340 | -84.72842 | 36884 ft | 465 kts | 113° |
| 2026-04-25 23:03 | 35.88094 | -84.65304 | 36895 ft | 467 kts | 113° |
| 2026-04-25 23:04 | 35.86290 | -84.59237 | 36893 ft | 464 kts | 113° |
| 2026-04-25 23:04 | 35.83653 | -84.50382 | 37149 ft | 467 kts | 113° |
| 2026-04-25 23:05 | 35.82536 | -84.46639 | 36900 ft | 466 kts | 113° |
| 2026-04-25 23:05 | 35.81431 | -84.42934 | 36886 ft | 460 kts | 113° |
| 2026-04-25 23:05 | 35.79200 | -84.35471 | 36892 ft | 465 kts | 113° |
| 2026-04-25 23:06 | 35.76960 | -84.28010 | 36893 ft | 465 kts | 114° |
| 2026-04-25 23:06 | 35.74717 | -84.20559 | 36898 ft | 465 kts | 114° |
| 2026-04-25 23:07 | 35.72462 | -84.13078 | 36897 ft | 463 kts | 114° |
| 2026-04-25 23:07 | 35.70219 | -84.05653 | 36902 ft | 465 kts | 114° |
| 2026-04-25 23:08 | 35.67953 | -83.98180 | 36901 ft | 464 kts | 114° |
| 2026-04-25 23:08 | 35.65682 | -83.90707 | 36905 ft | 465 kts | 114° |
| 2026-04-25 23:09 | 35.63418 | -83.83276 | 36907 ft | 466 kts | 114° |
| 2026-04-25 23:09 | 35.61132 | -83.75797 | 36909 ft | 466 kts | 114° |
| 2026-04-25 23:10 | 35.58861 | -83.68382 | 36913 ft | 463 kts | 114° |
| 2026-04-25 23:10 | 35.56590 | -83.60983 | 36918 ft | 465 kts | 114° |
| 2026-04-25 23:11 | 35.54322 | -83.53616 | 36921 ft | 464 kts | 114° |
| 2026-04-25 23:11 | 35.52032 | -83.46195 | 36924 ft | 464 kts | 114° |
| 2026-04-25 23:12 | 35.49735 | -83.38766 | 36929 ft | 464 kts | 114° |
| 2026-04-25 23:12 | 35.47452 | -83.31404 | 36931 ft | 464 kts | 115° |
| 2026-04-25 23:13 | 35.45135 | -83.23959 | 36935 ft | 462 kts | 115° |
| 2026-04-25 23:13 | 35.42849 | -83.16630 | 36935 ft | 463 kts | 115° |
| 2026-04-25 23:14 | 35.40540 | -83.09238 | 36936 ft | 463 kts | 115° |
| 2026-04-25 23:14 | 35.38239 | -83.01898 | 36940 ft | 463 kts | 115° |
| 2026-04-25 23:15 | 35.35938 | -82.94569 | 36943 ft | 464 kts | 115° |
| 2026-04-25 23:15 | 35.33612 | -82.87186 | 36940 ft | 464 kts | 115° |
| 2026-04-25 23:16 | 35.31289 | -82.79826 | 36937 ft | 463 kts | 115° |
| 2026-04-25 23:16 | 35.28957 | -82.72459 | 36934 ft | 462 kts | 115° |
| 2026-04-25 23:17 | 35.26625 | -82.65120 | 36932 ft | 464 kts | 115° |
| 2026-04-25 23:17 | 35.24271 | -82.57719 | 36922 ft | 464 kts | 115° |
| 2026-04-25 23:18 | 35.21914 | -82.50329 | 36926 ft | 464 kts | 115° |
| 2026-04-25 23:18 | 35.19550 | -82.42934 | 36918 ft | 464 kts | 115° |
| 2026-04-25 23:19 | 35.17212 | -82.35633 | 36910 ft | 464 kts | 115° |
| 2026-04-25 23:19 | 35.14856 | -82.28291 | 36898 ft | 465 kts | 116° |
| 2026-04-25 23:20 | 35.12487 | -82.20941 | 36894 ft | 465 kts | 116° |
| 2026-04-25 23:20 | 35.10112 | -82.13584 | 36895 ft | 464 kts | 116° |
| 2026-04-25 23:21 | 35.07732 | -82.06220 | 36894 ft | 464 kts | 116° |
| 2026-04-25 23:21 | 35.05365 | -81.98927 | 36896 ft | 464 kts | 116° |
| 2026-04-25 23:22 | 35.02979 | -81.91604 | 36898 ft | 463 kts | 116° |
| 2026-04-25 23:23 | 34.99287 | -81.80685 | 36904 ft | 467 kts | 117° |
| 2026-04-25 23:23 | 34.96814 | -81.73498 | 36896 ft | 463 kts | 117° |
| 2026-04-25 23:24 | 34.94311 | -81.66232 | 36895 ft | 466 kts | 117° |
| 2026-04-25 23:24 | 34.91803 | -81.58956 | 36892 ft | 467 kts | 117° |
| 2026-04-25 23:25 | 34.89314 | -81.51723 | 36888 ft | 464 kts | 116° |
| 2026-04-25 23:25 | 34.86860 | -81.44617 | 36887 ft | 464 kts | 117° |
| 2026-04-25 23:26 | 34.84365 | -81.37409 | 36896 ft | 464 kts | 117° |
| 2026-04-25 23:26 | 34.81838 | -81.30122 | 36898 ft | 465 kts | 117° |
| 2026-04-25 23:27 | 34.79321 | -81.22881 | 36900 ft | 465 kts | 117° |
| 2026-04-25 23:27 | 34.76792 | -81.15620 | 36857 ft | 466 kts | 117° |
| 2026-04-25 23:27 | 34.75526 | -81.11987 | 36479 ft | 463 kts | 117° |
| 2026-04-25 23:28 | 34.74269 | -81.08379 | 35961 ft | 459 kts | 117° |
| 2026-04-25 23:28 | 34.73031 | -81.04833 | 35356 ft | 457 kts | 117° |
| 2026-04-25 23:28 | 34.71789 | -81.01283 | 34831 ft | 453 kts | 117° |
| 2026-04-25 23:28 | 34.70567 | -80.97787 | 34382 ft | 448 kts | 117° |
| 2026-04-25 23:29 | 34.69342 | -80.94295 | 33895 ft | 444 kts | 117° |
| 2026-04-25 23:29 | 34.68147 | -80.90892 | 33426 ft | 441 kts | 116° |
| 2026-04-25 23:29 | 34.66947 | -80.87478 | 32931 ft | 438 kts | 116° |
| 2026-04-25 23:29 | 34.65752 | -80.84085 | 32435 ft | 435 kts | 116° |
| 2026-04-25 23:30 | 34.64580 | -80.80758 | 31954 ft | 432 kts | 117° |
| 2026-04-25 23:30 | 34.63398 | -80.77407 | 31462 ft | 429 kts | 116° |
| 2026-04-25 23:30 | 34.62228 | -80.74097 | 30971 ft | 426 kts | 116° |
| 2026-04-25 23:30 | 34.61052 | -80.70772 | 30478 ft | 423 kts | 116° |
| 2026-04-25 23:31 | 34.59909 | -80.67538 | 29994 ft | 421 kts | 116° |
| 2026-04-25 23:31 | 34.58756 | -80.64284 | 29516 ft | 418 kts | 116° |
| 2026-04-25 23:31 | 34.57611 | -80.61051 | 29029 ft | 416 kts | 116° |
| 2026-04-25 23:31 | 34.56472 | -80.57845 | 28550 ft | 413 kts | 116° |
| 2026-04-25 23:32 | 34.55355 | -80.54700 | 28078 ft | 409 kts | 116° |
| 2026-04-25 23:32 | 34.54231 | -80.51538 | 27603 ft | 406 kts | 116° |
| 2026-04-25 23:32 | 34.53120 | -80.48418 | 27132 ft | 403 kts | 116° |
| 2026-04-25 23:32 | 34.52006 | -80.45290 | 26657 ft | 400 kts | 116° |
| 2026-04-25 23:33 | 34.50913 | -80.42228 | 26198 ft | 398 kts | 116° |
| 2026-04-25 23:33 | 34.49816 | -80.39152 | 25728 ft | 395 kts | 116° |
| 2026-04-25 23:33 | 34.48735 | -80.36128 | 25274 ft | 392 kts | 116° |
| 2026-04-25 23:33 | 34.47660 | -80.33122 | 24818 ft | 389 kts | 116° |
| 2026-04-25 23:34 | 34.46580 | -80.30105 | 24355 ft | 386 kts | 116° |
| 2026-04-25 23:34 | 34.45524 | -80.27155 | 23900 ft | 383 kts | 116° |
| 2026-04-25 23:34 | 34.44468 | -80.24210 | 23461 ft | 380 kts | 116° |
| 2026-04-25 23:34 | 34.43427 | -80.21310 | 22996 ft | 377 kts | 116° |
| 2026-04-25 23:35 | 34.42374 | -80.18397 | 22526 ft | 375 kts | 116° |
| 2026-04-25 23:35 | 34.41320 | -80.15522 | 21963 ft | 376 kts | 116° |
| 2026-04-25 23:35 | 34.40248 | -80.12633 | 21624 ft | 370 kts | 117° |
| 2026-04-25 23:35 | 34.39202 | -80.09816 | 21231 ft | 368 kts | 116° |
| 2026-04-25 23:36 | 34.38154 | -80.07001 | 20780 ft | 367 kts | 116° |
| 2026-04-25 23:36 | 34.37105 | -80.04188 | 20327 ft | 364 kts | 116° |
| 2026-04-25 23:36 | 34.36064 | -80.01415 | 19882 ft | 362 kts | 116° |
| 2026-04-25 23:36 | 34.35023 | -79.98649 | 19436 ft | 360 kts | 116° |
| 2026-04-25 23:37 | 34.33995 | -79.95908 | 18991 ft | 357 kts | 116° |
| 2026-04-25 23:37 | 34.32972 | -79.93179 | 18547 ft | 355 kts | 116° |
| 2026-04-25 23:37 | 34.31963 | -79.90505 | 18106 ft | 352 kts | 116° |
| 2026-04-25 23:37 | 34.30939 | -79.87802 | 17656 ft | 350 kts | 116° |
| 2026-04-25 23:38 | 34.29927 | -79.85144 | 17218 ft | 347 kts | 116° |
| 2026-04-25 23:38 | 34.28920 | -79.82507 | 16775 ft | 345 kts | 116° |
| 2026-04-25 23:38 | 34.27929 | -79.79909 | 16339 ft | 342 kts | 116° |
| 2026-04-25 23:38 | 34.26934 | -79.77305 | 15899 ft | 340 kts | 116° |
| 2026-04-25 23:39 | 34.25952 | -79.74737 | 15461 ft | 337 kts | 116° |
| 2026-04-25 23:39 | 34.24970 | -79.72175 | 15021 ft | 334 kts | 116° |
| 2026-04-25 23:39 | 34.23997 | -79.69647 | 14584 ft | 332 kts | 116° |
| 2026-04-25 23:39 | 34.23019 | -79.67100 | 14141 ft | 330 kts | 116° |
| 2026-04-25 23:40 | 34.22060 | -79.64610 | 13719 ft | 329 kts | 116° |
| 2026-04-25 23:40 | 34.21091 | -79.62124 | 13266 ft | 327 kts | 116° |
| 2026-04-25 23:40 | 34.20127 | -79.59661 | 12835 ft | 325 kts | 116° |
| 2026-04-25 23:40 | 34.19156 | -79.57181 | 12401 ft | 324 kts | 116° |
| 2026-04-25 23:41 | 34.18186 | -79.54726 | 11966 ft | 322 kts | 117° |
| 2026-04-25 23:41 | 34.17117 | -79.52395 | 11554 ft | 318 kts | 123° |
| 2026-04-25 23:41 | 34.15909 | -79.50203 | 11182 ft | 302 kts | 126° |
| 2026-04-25 23:41 | 34.14727 | -79.48180 | 10706 ft | 296 kts | 126° |
| 2026-04-25 23:42 | 34.13547 | -79.46139 | 10104 ft | 293 kts | 126° |
| 2026-04-25 23:42 | 34.12431 | -79.44151 | 9756 ft | 282 kts | 126° |
| 2026-04-25 23:42 | 34.11349 | -79.42178 | 9419 ft | 289 kts | 125° |
| 2026-04-25 23:42 | 34.10212 | -79.40099 | 9043 ft | 293 kts | 125° |
| 2026-04-25 23:43 | 34.09117 | -79.38081 | 8684 ft | 282 kts | 125° |
| 2026-04-25 23:43 | 34.08054 | -79.36120 | 8408 ft | 284 kts | 125° |
| 2026-04-25 23:43 | 34.06961 | -79.34100 | 7983 ft | 287 kts | 125° |
| 2026-04-25 23:43 | 34.05870 | -79.32084 | 7662 ft | 285 kts | 126° |
| 2026-04-25 23:44 | 34.04792 | -79.30106 | 7312 ft | 285 kts | 126° |
| 2026-04-25 23:44 | 34.03695 | -79.28095 | 6934 ft | 284 kts | 126° |
| 2026-04-25 23:44 | 34.02611 | -79.26112 | 6588 ft | 282 kts | 125° |
| 2026-04-25 23:44 | 34.01534 | -79.24143 | 6227 ft | 281 kts | 126° |
| 2026-04-25 23:45 | 34.00468 | -79.22194 | 5895 ft | 279 kts | 126° |
| 2026-04-25 23:45 | 33.99404 | -79.20245 | 5546 ft | 278 kts | 126° |
| 2026-04-25 23:45 | 33.98340 | -79.18297 | 5175 ft | 277 kts | 126° |
| 2026-04-25 23:45 | 33.97284 | -79.16365 | 4820 ft | 274 kts | 126° |
| 2026-04-25 23:46 | 33.96239 | -79.14450 | 4506 ft | 271 kts | 126° |
| 2026-04-25 23:46 | 33.95207 | -79.12564 | 4160 ft | 270 kts | 126° |
| 2026-04-25 23:46 | 33.94178 | -79.10683 | 3822 ft | 268 kts | 127° |
| 2026-04-25 23:46 | 33.93146 | -79.08798 | 3487 ft | 265 kts | 127° |
| 2026-04-25 23:47 | 33.92146 | -79.06980 | 3257 ft | 259 kts | 127° |
| 2026-04-25 23:47 | 33.91157 | -79.05180 | 3044 ft | 253 kts | 127° |
| 2026-04-25 23:47 | 33.90203 | -79.03444 | 2756 ft | 246 kts | 127° |
| 2026-04-25 23:47 | 33.89269 | -79.01749 | 2427 ft | 239 kts | 127° |
| 2026-04-25 23:48 | 33.88367 | -79.00108 | 2094 ft | 236 kts | 127° |
| 2026-04-25 23:48 | 33.87456 | -78.98548 | 1981 ft | 216 kts | 134° |
| 2026-04-25 23:48 | 33.86328 | -78.97483 | 1967 ft | 197 kts | 161° |
| 2026-04-25 23:48 | 33.85057 | -78.97084 | 1974 ft | 183 kts | 171° |
| 2026-04-25 23:49 | 33.83855 | -78.96798 | 1971 ft | 169 kts | 171° |
| 2026-04-25 23:49 | 33.82715 | -78.96506 | 1974 ft | 169 kts | 170° |
| 2026-04-25 23:49 | 33.81544 | -78.96209 | 1977 ft | 170 kts | 169° |
| 2026-04-25 23:49 | 33.80388 | -78.95922 | 1971 ft | 164 kts | 170° |
| 2026-04-25 23:50 | 33.79364 | -78.95664 | 1967 ft | 140 kts | 170° |
| 2026-04-25 23:50 | 33.78427 | -78.95431 | 1820 ft | 136 kts | 171° |
| 2026-04-25 23:50 | 33.77505 | -78.95203 | 1647 ft | 133 kts | 170° |
| 2026-04-25 23:50 | 33.76588 | -78.94975 | 1474 ft | 134 kts | 171° |
| 2026-04-25 23:51 | 33.75671 | -78.94750 | 1293 ft | 134 kts | 170° |
| 2026-04-25 23:51 | 33.74744 | -78.94515 | 1138 ft | 137 kts | 171° |
| 2026-04-25 23:51 | 33.73793 | -78.94288 | 922 ft | 141 kts | 169° |
| 2026-04-25 23:51 | 33.72839 | -78.94035 | 736 ft | 141 kts | 169° |
| 2026-04-25 23:52 | 33.71883 | -78.93806 | 563 ft | 142 kts | 170° |
| 2026-04-25 23:52 | 33.70910 | -78.93562 | 403 ft | 142 kts | 169° |
| 2026-04-25 23:52 | 33.69928 | -78.93317 | 182 ft | 144 kts | 169° |
| 2026-04-25 23:52 | 33.68953 | -78.93077 | 25 ft | 139 kts | 168° |
| 2026-04-25 23:53 | 33.68266 | -78.92905 | 25 ft | 56 kts | 167° |
| 2026-04-25 23:53 | 33.68108 | -78.92841 | 25 ft | 13 kts | 91° |
| 2026-04-25 23:53 | 33.68152 | -78.92741 | 26 ft | 12 kts | 68° |
| 2026-04-25 23:53 | 33.68182 | -78.92644 | 25 ft | 12 kts | 79° |
| 2026-04-25 23:54 | 33.68205 | -78.92554 | 26 ft | 9 kts | 41° |
| 2026-04-25 23:54 | 33.68272 | -78.92542 | 26 ft | 10 kts | 1° |
| 2026-04-25 23:54 | 33.68321 | -78.92516 | 26 ft | 6 kts | 108° |
| 2026-04-25 23:54 | 33.68304 | -78.92463 | 26 ft | 6 kts | 108° |
| 2026-04-25 23:55 | 33.68293 | -78.92425 | 26 ft | 0 kts | 107° |